createdAt,value
2018-12-15T00:01:13.620Z,0.54
2018-12-15T00:03:40.764Z,0.52
2018-12-15T00:06:07.888Z,0.59
2018-12-15T00:08:35.074Z,0.69
2018-12-15T00:11:02.191Z,0.56
2018-12-15T00:13:29.303Z,0.50
2018-12-15T00:15:56.574Z,0.55
2018-12-15T00:18:23.820Z,0.49
2018-12-15T00:20:50.938Z,0.46
2018-12-15T00:23:18.114Z,0.50
2018-12-15T00:25:45.235Z,0.52
2018-12-15T00:28:12.372Z,0.42
2018-12-15T00:30:39.536Z,0.44
2018-12-15T00:33:06.675Z,0.34
2018-12-15T00:35:33.811Z,0.42
2018-12-15T00:38:00.990Z,0.53
2018-12-15T00:40:28.107Z,0.51
2018-12-15T00:42:56.328Z,0.38
2018-12-15T00:45:23.595Z,0.45
2018-12-15T00:47:50.758Z,0.46
2018-12-15T00:50:17.867Z,0.45
2018-12-15T00:52:45.034Z,0.53
2018-12-15T00:55:12.161Z,0.47
2018-12-15T00:57:39.296Z,0.44
2018-12-15T01:00:06.775Z,0.40
2018-12-15T01:02:33.894Z,0.34
2018-12-15T01:05:01.013Z,0.26
2018-12-15T01:07:28.181Z,0.28
2018-12-15T01:09:55.275Z,0.38
2018-12-15T01:12:22.387Z,0.33
2018-12-15T01:14:49.546Z,0.34
2018-12-15T01:17:20.418Z,0.31
2018-12-15T01:19:45.857Z,0.35
2018-12-15T01:22:13.006Z,0.48
2018-12-15T01:24:40.106Z,0.25
2018-12-15T01:27:07.208Z,0.37
2018-12-15T01:29:34.420Z,0.34
2018-12-15T01:32:01.557Z,0.26
2018-12-15T01:34:28.691Z,0.34
2018-12-15T01:36:55.907Z,0.31
2018-12-15T01:39:23.034Z,0.40
2018-12-15T01:41:50.145Z,0.48
2018-12-15T01:44:17.318Z,0.41
2018-12-15T01:46:44.439Z,0.28
2018-12-15T01:49:11.555Z,0.15
2018-12-15T01:51:38.711Z,0.23
2018-12-15T01:54:05.839Z,0.16
2018-12-15T01:56:32.959Z,0.22
2018-12-15T01:59:00.119Z,0.17
2018-12-15T02:01:27.314Z,0.19
2018-12-15T02:03:54.440Z,0.11
2018-12-15T02:06:21.614Z,0.15
2018-12-15T02:08:48.715Z,0.27
2018-12-15T02:11:15.829Z,0.21
2018-12-15T02:13:43.119Z,0.20
2018-12-15T02:16:10.276Z,0.25
2018-12-15T02:18:37.375Z,0.24
2018-12-15T02:21:04.520Z,0.31
2018-12-15T02:23:31.637Z,0.22
2018-12-15T02:25:58.764Z,0.31
2018-12-15T02:28:25.926Z,0.22
2018-12-15T02:30:53.047Z,0.17
2018-12-15T02:33:20.141Z,0.15
2018-12-15T02:35:47.320Z,0.07
2018-12-15T02:38:14.451Z,0.11
2018-12-15T02:40:41.575Z,0.20
2018-12-15T02:43:08.766Z,0.28
2018-12-15T02:45:35.883Z,0.31
2018-12-15T02:48:03.007Z,0.34
2018-12-15T02:50:30.167Z,0.34
2018-12-15T02:52:57.302Z,0.47
2018-12-15T02:55:24.439Z,0.29
2018-12-15T02:57:51.587Z,0.36
2018-12-15T03:00:18.711Z,0.38
2018-12-15T03:02:45.904Z,0.41
2018-12-15T03:05:13.375Z,0.28
2018-12-15T03:07:40.550Z,0.29
2018-12-15T03:10:07.824Z,0.31
2018-12-15T03:12:35.091Z,0.38
2018-12-15T03:15:02.198Z,0.48
2018-12-15T03:17:29.327Z,0.50
2018-12-15T03:20:00.427Z,0.52
2018-12-15T03:22:27.674Z,0.58
2018-12-15T03:24:54.793Z,0.55
2018-12-15T03:27:22.097Z,0.57
2018-12-15T03:29:49.304Z,0.54
2018-12-15T03:32:16.425Z,0.64
2018-12-15T03:34:43.619Z,0.66
2018-12-15T03:37:10.743Z,0.65
2018-12-15T03:39:38.054Z,0.63
2018-12-15T03:42:05.313Z,0.64
2018-12-15T03:46:57.851Z,0.65
2018-12-15T03:49:24.984Z,0.58
2018-12-15T03:51:52.110Z,0.63
2018-12-15T03:54:19.284Z,0.69
2018-12-15T03:56:46.474Z,0.65
2018-12-15T03:59:13.607Z,0.57
2018-12-15T04:01:40.752Z,0.53
2018-12-15T04:04:08.342Z,0.64
2018-12-15T04:06:35.480Z,0.63
2018-12-15T04:09:03.422Z,0.69
2018-12-15T04:11:30.666Z,0.70
2018-12-15T04:13:57.856Z,0.71
2018-12-15T04:16:24.985Z,0.71
2018-12-15T04:18:52.167Z,0.63
2018-12-15T04:21:19.281Z,0.70
2018-12-15T04:23:46.423Z,0.79
2018-12-15T04:26:13.625Z,0.80
2018-12-15T04:28:40.746Z,0.75
2018-12-15T04:31:07.893Z,0.71
2018-12-15T04:33:35.083Z,0.79
2018-12-15T04:36:12.479Z,0.76
2018-12-15T04:38:39.744Z,0.77
2018-12-15T04:41:06.872Z,0.89
2018-12-15T04:43:34.019Z,0.79
2018-12-15T04:46:01.234Z,0.86
2018-12-15T04:48:28.470Z,0.78
2018-12-15T04:50:55.580Z,0.78
2018-12-15T04:53:22.756Z,0.68
2018-12-15T04:55:49.898Z,0.75
2018-12-15T04:58:17.033Z,0.71
2018-12-15T05:00:44.344Z,0.67
2018-12-15T05:03:11.494Z,0.79
2018-12-15T05:05:38.665Z,0.72
2018-12-15T05:08:05.951Z,0.73
2018-12-15T05:10:33.073Z,0.80
2018-12-15T05:13:00.183Z,0.66
2018-12-15T05:15:27.394Z,0.67
2018-12-15T05:17:54.524Z,0.72
2018-12-15T05:20:21.627Z,0.72
2018-12-15T05:22:48.776Z,0.76
2018-12-15T05:25:16.011Z,0.76
2018-12-15T05:27:43.130Z,0.75
2018-12-15T05:30:11.130Z,0.80
2018-12-15T05:32:38.239Z,0.72
2018-12-15T05:35:05.359Z,0.84
2018-12-15T05:37:32.523Z,0.77
2018-12-15T05:39:59.624Z,0.74
2018-12-15T05:42:26.826Z,0.65
2018-12-15T05:44:54.093Z,0.76
2018-12-15T05:47:21.192Z,0.78
2018-12-15T05:49:48.296Z,0.69
2018-12-15T05:52:15.452Z,0.79
2018-12-15T05:54:42.556Z,0.76
2018-12-15T05:57:09.711Z,0.75
2018-12-15T05:59:36.920Z,0.78
2018-12-15T06:02:06.076Z,0.82
2018-12-15T06:04:33.223Z,0.76
2018-12-15T06:07:02.266Z,0.64
2018-12-15T06:09:29.387Z,0.70
2018-12-15T06:11:56.673Z,0.78
2018-12-15T06:14:23.886Z,0.71
2018-12-15T06:16:51.022Z,0.71
2018-12-15T06:19:19.032Z,0.75
2018-12-15T06:21:46.493Z,0.70
2018-12-15T06:24:13.635Z,0.74
2018-12-15T06:26:40.746Z,0.77
2018-12-15T06:29:07.940Z,0.73
2018-12-15T06:31:35.099Z,0.77
2018-12-15T06:34:02.338Z,0.79
2018-12-15T06:36:29.522Z,0.77
2018-12-15T06:38:57.324Z,0.72
2018-12-15T06:41:24.487Z,0.79
2018-12-15T06:43:51.887Z,0.81
2018-12-15T06:46:19.454Z,0.73
2018-12-15T06:48:47.461Z,0.74
2018-12-15T06:51:14.678Z,0.74
2018-12-15T06:53:41.807Z,0.78
2018-12-15T06:56:08.968Z,0.81
2018-12-15T06:58:36.162Z,0.73
2018-12-15T07:01:03.418Z,0.78
2018-12-15T07:03:30.540Z,0.76
2018-12-15T07:05:57.794Z,0.77
2018-12-15T07:08:24.990Z,0.80
2018-12-15T07:10:52.186Z,0.76
2018-12-15T07:13:19.347Z,0.80
2018-12-15T07:15:46.495Z,0.78
2018-12-15T07:18:14.002Z,0.79
2018-12-15T07:20:41.194Z,0.80
2018-12-15T07:23:08.327Z,0.78
2018-12-15T07:25:35.971Z,0.77
2018-12-15T07:28:04.465Z,0.78
2018-12-15T07:30:31.923Z,0.81
2018-12-15T07:32:59.389Z,0.80
2018-12-15T07:35:26.572Z,0.80
2018-12-15T07:37:53.688Z,0.74
2018-12-15T07:40:20.830Z,0.73
2018-12-15T07:42:48.023Z,0.75
2018-12-15T07:45:15.144Z,0.78
2018-12-15T07:47:42.619Z,0.79
2018-12-15T07:52:35.119Z,0.82
2018-12-15T07:55:02.232Z,0.90
2018-12-15T07:57:29.684Z,0.89
2018-12-15T07:59:57.048Z,0.95
2018-12-15T08:02:24.276Z,0.98
2018-12-15T08:04:51.812Z,0.97
2018-12-15T08:07:19.169Z,1.06
2018-12-15T08:09:48.585Z,1.08
2018-12-15T08:12:52.652Z,0.88
2018-12-15T08:15:19.965Z,1.08
2018-12-15T08:17:47.124Z,1.16
2018-12-15T08:20:14.413Z,1.03
2018-12-15T08:22:41.556Z,1.12
2018-12-15T08:25:08.706Z,1.20
2018-12-15T08:27:35.931Z,1.26
2018-12-15T08:30:05.038Z,1.20
2018-12-15T08:32:33.031Z,1.22
2018-12-15T08:35:00.226Z,1.26
2018-12-15T08:37:27.345Z,1.33
2018-12-15T08:39:54.585Z,1.39
2018-12-15T08:42:22.897Z,1.26
2018-12-15T08:44:50.145Z,1.19
2018-12-15T08:47:18.365Z,1.37
2018-12-15T08:49:45.533Z,1.41
2018-12-15T08:52:13.231Z,1.29
2018-12-15T08:54:40.387Z,1.45
2018-12-15T08:57:09.563Z,1.40
2018-12-15T08:59:36.681Z,1.33
2018-12-15T09:02:03.823Z,1.36
2018-12-15T09:04:32.251Z,1.50
2018-12-15T09:07:00.328Z,1.53
2018-12-15T09:09:35.359Z,1.41
2018-12-15T09:12:02.572Z,1.58
2018-12-15T09:14:29.769Z,1.65
2018-12-15T09:16:57.107Z,1.64
2018-12-15T09:19:24.238Z,1.65
2018-12-15T09:21:52.126Z,1.66
2018-12-15T09:24:19.320Z,1.68
2018-12-15T09:26:46.473Z,1.38
2018-12-15T09:29:13.763Z,1.33
2018-12-15T09:31:41.153Z,1.37
2018-12-15T09:34:08.322Z,1.32
2018-12-15T09:36:35.546Z,1.42
2018-12-15T09:39:04.203Z,1.52
2018-12-15T09:41:31.331Z,1.63
2018-12-15T09:43:58.475Z,1.62
2018-12-15T09:46:25.697Z,1.67
2018-12-15T09:48:54.590Z,1.65
2018-12-15T09:51:21.996Z,1.40
2018-12-15T09:53:49.154Z,1.63
2018-12-15T09:56:16.273Z,1.62
2018-12-15T09:58:43.505Z,1.68
2018-12-15T10:01:10.815Z,1.64
2018-12-15T10:03:37.919Z,1.74
2018-12-15T10:06:05.204Z,1.83
2018-12-15T10:08:32.504Z,1.78
2018-12-15T10:10:59.802Z,1.45
2018-12-15T10:13:27.228Z,1.66
2018-12-15T10:15:54.588Z,1.74
2018-12-15T10:18:21.690Z,1.76
2018-12-15T10:20:50.335Z,1.81
2018-12-15T10:23:17.913Z,1.91
2018-12-15T10:25:45.105Z,2.01
2018-12-15T10:29:12.763Z,2.13
2018-12-15T10:31:45.566Z,2.14
2018-12-15T10:34:12.965Z,2.19
2018-12-15T10:36:40.094Z,2.28
2018-12-15T10:39:08.231Z,1.84
2018-12-15T10:41:35.435Z,1.85
2018-12-15T10:44:02.572Z,1.83
2018-12-15T10:46:30.099Z,2.02
2018-12-15T10:48:57.249Z,2.04
2018-12-15T10:51:24.363Z,1.97
2018-12-15T10:53:51.538Z,1.94
2018-12-15T10:56:18.814Z,1.97
2018-12-15T10:58:46.084Z,1.93
2018-12-15T11:01:18.974Z,1.82
2018-12-15T11:03:46.197Z,1.81
2018-12-15T11:06:13.331Z,1.70
2018-12-15T11:08:40.598Z,1.56
2018-12-15T11:11:07.723Z,1.81
2018-12-15T11:13:34.891Z,1.83
2018-12-15T11:16:02.354Z,1.74
2018-12-15T11:18:29.522Z,1.72
2018-12-15T11:20:56.658Z,1.77
2018-12-15T11:23:23.882Z,1.76
2018-12-15T11:25:51.026Z,1.85
2018-12-15T11:28:18.123Z,1.73
2018-12-15T11:30:45.304Z,1.75
2018-12-15T11:33:12.529Z,1.87
2018-12-15T11:35:39.658Z,1.95
2018-12-15T11:38:06.873Z,1.88
2018-12-15T11:40:34.091Z,2.04
2018-12-15T11:43:01.200Z,2.12
2018-12-15T11:45:28.464Z,1.79
2018-12-15T11:47:55.677Z,1.83
2018-12-15T11:50:22.819Z,1.66
2018-12-15T11:52:50.286Z,1.82
2018-12-15T11:55:18.580Z,1.62
2018-12-15T11:57:45.754Z,1.84
2018-12-15T12:00:13.976Z,2.00
2018-12-15T12:02:41.228Z,1.79
2018-12-15T12:05:08.448Z,1.69
2018-12-15T12:07:35.613Z,1.42
2018-12-15T12:10:02.858Z,1.45
2018-12-15T12:12:30.006Z,1.38
2018-12-15T12:14:57.372Z,1.31
2018-12-15T12:17:24.568Z,1.33
2018-12-15T12:19:51.691Z,1.32
2018-12-15T12:22:19.003Z,1.44
2018-12-15T12:24:46.165Z,1.38
2018-12-15T12:27:13.295Z,1.65
2018-12-15T12:29:40.442Z,1.76
2018-12-15T12:32:07.549Z,1.81
2018-12-15T12:34:34.642Z,1.97
2018-12-15T12:37:01.885Z,1.95
2018-12-15T12:39:29.024Z,1.80
2018-12-15T12:41:56.116Z,1.95
2018-12-15T12:44:23.443Z,2.01
2018-12-15T12:46:50.543Z,2.21
2018-12-15T12:49:17.663Z,2.33
2018-12-15T12:51:44.903Z,2.33
2018-12-15T12:54:12.079Z,2.45
2018-12-15T12:56:39.271Z,2.45
2018-12-15T12:59:06.720Z,2.21
2018-12-15T13:01:34.388Z,2.07
2018-12-15T13:04:02.820Z,2.09
2018-12-15T13:06:30.201Z,2.03
2018-12-15T13:08:57.343Z,2.17
2018-12-15T13:11:24.466Z,2.25
2018-12-15T13:13:51.756Z,2.06
2018-12-15T13:16:19.142Z,2.24
2018-12-15T13:18:46.310Z,2.14
2018-12-15T13:21:13.575Z,2.22
2018-12-15T13:23:40.702Z,2.34
2018-12-15T13:26:07.814Z,2.39
2018-12-15T13:28:35.045Z,2.24
2018-12-15T13:31:02.206Z,2.01
2018-12-15T13:33:35.028Z,1.91
2018-12-15T13:36:02.433Z,2.01
2018-12-15T13:38:29.567Z,2.14
2018-12-15T13:40:56.772Z,2.05
2018-12-15T13:43:23.899Z,1.86
2018-12-15T13:45:51.024Z,2.03
2018-12-15T13:48:18.218Z,2.10
2018-12-15T13:50:45.374Z,1.94
2018-12-15T13:53:12.649Z,1.97
2018-12-15T13:55:39.871Z,1.93
2018-12-15T13:58:07.099Z,1.90
2018-12-15T14:00:34.253Z,1.95
2018-12-15T14:03:01.548Z,1.93
2018-12-15T14:05:28.715Z,1.93
2018-12-15T14:07:55.847Z,1.86
2018-12-15T14:10:23.028Z,1.81
2018-12-15T14:12:50.148Z,1.84
2018-12-15T14:15:17.418Z,1.80
2018-12-15T14:17:44.718Z,1.85
2018-12-15T14:20:16.763Z,1.67
2018-12-15T14:22:41.099Z,1.50
2018-12-15T14:25:08.420Z,1.39
2018-12-15T14:27:35.600Z,1.44
2018-12-15T14:30:02.947Z,1.19
2018-12-15T14:32:30.145Z,1.00
2018-12-15T14:34:57.263Z,1.05
2018-12-15T14:37:24.370Z,1.12
2018-12-15T14:39:51.619Z,0.98
2018-12-15T14:42:18.731Z,1.05
2018-12-15T14:44:45.966Z,1.01
2018-12-15T14:47:13.145Z,1.01
2018-12-15T14:49:40.256Z,1.06
2018-12-15T14:52:07.498Z,1.01
2018-12-15T14:54:34.726Z,0.99
2018-12-15T14:57:01.928Z,0.94
2018-12-15T14:59:29.020Z,0.82
2018-12-15T15:01:56.273Z,0.82
2018-12-15T15:04:23.496Z,0.92
2018-12-15T15:06:50.642Z,0.89
2018-12-15T15:09:17.865Z,1.04
2018-12-15T15:11:44.959Z,0.96
2018-12-15T15:14:12.069Z,1.00
2018-12-15T15:16:39.257Z,1.05
2018-12-15T15:19:06.450Z,1.08
2018-12-15T15:21:33.597Z,1.05
2018-12-15T15:24:00.774Z,1.12
2018-12-15T15:26:27.891Z,0.97
2018-12-15T15:28:55.010Z,1.00
2018-12-15T15:31:22.450Z,1.08
2018-12-15T15:33:49.582Z,1.02
2018-12-15T15:36:16.783Z,0.90
2018-12-15T15:38:44.037Z,0.93
2018-12-15T15:41:11.188Z,0.99
2018-12-15T15:43:38.318Z,1.01
2018-12-15T15:46:05.490Z,1.03
2018-12-15T15:48:32.666Z,1.12
2018-12-15T15:50:59.874Z,0.97
2018-12-15T15:53:27.122Z,0.96
2018-12-15T15:55:54.271Z,0.82
2018-12-15T15:58:21.394Z,0.84
2018-12-15T16:00:48.583Z,0.80
2018-12-15T16:03:15.699Z,0.81
2018-12-15T16:05:42.814Z,0.90
2018-12-15T16:08:10.091Z,0.99
2018-12-15T16:10:37.210Z,0.93
2018-12-15T16:13:04.359Z,0.90
2018-12-15T16:15:31.524Z,0.85
2018-12-15T16:17:58.658Z,0.87
2018-12-15T16:20:25.879Z,0.87
2018-12-15T16:22:53.156Z,0.90
2018-12-15T16:25:20.283Z,0.96
2018-12-15T16:27:47.407Z,0.89
2018-12-15T16:30:14.700Z,0.90
2018-12-15T16:32:41.853Z,0.96
2018-12-15T16:35:09.515Z,1.13
2018-12-15T16:37:36.758Z,1.10
2018-12-15T16:40:05.291Z,1.06
2018-12-15T16:42:32.536Z,1.06
2018-12-15T16:44:59.735Z,1.09
2018-12-15T16:47:27.484Z,1.01
2018-12-15T16:49:54.907Z,0.97
2018-12-15T16:52:22.262Z,0.84
2018-12-15T16:54:49.608Z,0.79
2018-12-15T16:57:16.735Z,0.92
2018-12-15T16:59:43.995Z,0.96
2018-12-15T17:02:11.229Z,0.94
2018-12-15T17:04:38.346Z,1.05
2018-12-15T17:07:05.526Z,0.99
2018-12-15T17:09:32.643Z,0.82
2018-12-15T17:11:59.772Z,0.76
2018-12-15T17:14:26.958Z,0.84
2018-12-15T17:16:54.079Z,0.72
2018-12-15T17:19:21.193Z,0.90
2018-12-15T17:21:48.447Z,0.76
2018-12-15T17:24:15.599Z,0.93
2018-12-15T17:26:42.717Z,0.88
2018-12-15T17:29:09.912Z,0.82
2018-12-15T17:31:37.047Z,0.83
2018-12-15T17:34:04.183Z,0.91
2018-12-15T17:36:31.452Z,0.97
2018-12-15T17:38:58.723Z,0.89
2018-12-15T17:41:25.983Z,0.85
2018-12-15T17:43:53.175Z,0.79
2018-12-15T17:46:20.308Z,0.64
2018-12-15T17:48:47.468Z,0.65
2018-12-15T17:51:14.747Z,0.69
2018-12-15T17:53:42.039Z,0.62
2018-12-15T17:56:09.183Z,0.61
2018-12-15T17:58:36.394Z,0.64
2018-12-15T18:01:03.713Z,0.56
2018-12-15T18:03:30.873Z,0.53
2018-12-15T18:05:58.139Z,0.65
2018-12-15T18:08:25.263Z,0.60
2018-12-15T18:10:52.442Z,0.59
2018-12-15T18:13:19.639Z,0.70
2018-12-15T18:15:46.884Z,0.80
2018-12-15T18:18:14.102Z,0.84
2018-12-15T18:20:41.272Z,0.83
2018-12-15T18:23:08.478Z,0.82
2018-12-15T18:25:35.648Z,0.87
2018-12-15T18:28:03.911Z,0.88
2018-12-15T18:30:31.030Z,0.93
2018-12-15T18:32:58.183Z,0.85
2018-12-15T18:35:25.391Z,0.75
2018-12-15T18:37:52.543Z,0.85
2018-12-15T18:40:19.691Z,0.91
2018-12-15T18:42:46.962Z,0.84
2018-12-15T18:45:14.306Z,0.84
2018-12-15T18:47:41.488Z,0.85
2018-12-15T18:53:09.488Z,0.63
2018-12-15T18:55:36.626Z,0.80
2018-12-15T18:58:05.826Z,0.79
2018-12-15T19:00:33.529Z,0.72
2018-12-15T19:03:00.635Z,0.72
2018-12-15T19:05:27.763Z,0.75
2018-12-15T19:07:55.035Z,0.74
2018-12-15T19:10:22.162Z,0.63
2018-12-15T19:12:49.374Z,0.34
2018-12-15T19:15:16.551Z,0.62
2018-12-15T19:17:43.644Z,0.47
2018-12-15T19:20:10.885Z,0.49
2018-12-15T19:22:38.115Z,0.56
2018-12-15T19:25:05.591Z,0.58
2018-12-15T19:27:32.758Z,0.68
2018-12-15T19:29:59.994Z,0.59
2018-12-15T19:32:27.126Z,0.73
2018-12-15T19:34:54.325Z,0.70
2018-12-15T19:37:21.560Z,0.67
2018-12-15T19:39:48.678Z,0.55
2018-12-15T19:42:15.807Z,0.59
2018-12-15T19:47:25.336Z,0.46
2018-12-15T19:49:52.587Z,0.43
2018-12-15T19:52:19.726Z,0.46
2018-12-15T19:54:46.975Z,0.38
2018-12-15T19:57:14.220Z,0.40
2018-12-15T19:59:41.523Z,0.37
2018-12-15T20:02:08.751Z,0.46
2018-12-15T20:04:35.903Z,0.45
2018-12-15T20:07:03.347Z,0.36
2018-12-15T20:09:30.583Z,0.34
2018-12-15T20:11:57.813Z,0.34
2018-12-15T20:14:24.970Z,0.36
2018-12-15T20:16:52.264Z,0.33
2018-12-15T20:19:19.506Z,0.32
2018-12-15T20:21:46.627Z,0.49
2018-12-15T20:24:13.803Z,0.43
2018-12-15T20:26:40.990Z,0.35
2018-12-15T20:29:08.129Z,0.40
2018-12-15T20:31:35.371Z,0.49
2018-12-15T20:34:03.727Z,0.30
2018-12-15T20:36:31.054Z,0.31
2018-12-15T20:38:59.231Z,0.37
2018-12-15T20:41:26.362Z,0.34
2018-12-15T20:43:54.206Z,0.37
2018-12-15T20:46:21.915Z,0.25
2018-12-15T20:48:50.719Z,0.29
2018-12-15T20:51:18.121Z,0.33
2018-12-15T20:53:45.406Z,0.33
2018-12-15T20:56:12.592Z,0.34
2018-12-15T20:58:39.945Z,0.35
2018-12-15T21:01:07.803Z,0.37
2018-12-15T21:03:35.681Z,0.27
2018-12-15T21:06:02.803Z,0.38
2018-12-15T21:08:30.289Z,0.33
2018-12-15T21:10:57.415Z,0.28
2018-12-15T21:13:25.003Z,0.27
2018-12-15T21:15:55.416Z,0.26
2018-12-15T21:18:22.955Z,0.37
2018-12-15T21:20:51.246Z,0.33
2018-12-15T21:23:18.448Z,0.30
2018-12-15T21:25:45.827Z,0.24
2018-12-15T21:28:13.106Z,0.25
2018-12-15T21:30:40.325Z,0.25
2018-12-15T21:33:07.542Z,0.31
2018-12-15T21:35:35.771Z,0.37
2018-12-15T21:38:02.956Z,0.40
2018-12-15T21:40:30.088Z,0.36
2018-12-15T21:42:57.203Z,0.44
2018-12-15T21:45:24.392Z,0.29
2018-12-15T21:47:57.386Z,0.41
2018-12-15T21:50:20.779Z,0.29
2018-12-15T21:52:47.956Z,0.36
2018-12-15T21:55:15.088Z,0.37
2018-12-15T21:57:42.275Z,0.32
2018-12-15T22:00:09.669Z,0.28
2018-12-15T22:02:36.881Z,0.29
2018-12-15T22:05:05.003Z,0.34
2018-12-15T22:07:34.156Z,0.47
2018-12-15T22:10:01.306Z,0.34
2018-12-15T22:12:28.530Z,0.32
2018-12-15T22:14:55.720Z,0.34
2018-12-15T22:17:22.854Z,0.26
2018-12-15T22:19:53.703Z,0.30
2018-12-15T22:22:20.904Z,0.28
2018-12-15T22:24:48.279Z,0.36
2018-12-15T22:27:15.408Z,0.39
2018-12-15T22:29:42.691Z,0.37
2018-12-15T22:32:09.832Z,0.37
2018-12-15T22:34:36.972Z,0.40
2018-12-15T22:37:04.170Z,0.51
2018-12-15T22:39:31.298Z,0.41
2018-12-15T22:41:58.438Z,0.32
2018-12-15T22:44:25.620Z,0.39
2018-12-15T22:46:52.742Z,0.40
2018-12-15T22:49:19.851Z,0.40
2018-12-15T22:51:47.084Z,0.40
2018-12-15T22:54:14.203Z,0.37
2018-12-15T22:56:41.335Z,0.37
2018-12-15T22:59:08.542Z,0.38
2018-12-15T23:01:41.434Z,0.40
2018-12-15T23:04:08.719Z,0.34
2018-12-15T23:06:35.885Z,0.41
2018-12-15T23:09:05.075Z,0.37
2018-12-15T23:11:32.404Z,0.32
2018-12-15T23:13:59.531Z,0.38
2018-12-15T23:16:26.671Z,0.37
2018-12-15T23:18:53.880Z,0.44
2018-12-15T23:21:21.048Z,0.46
2018-12-15T23:23:48.227Z,0.48
2018-12-15T23:26:15.382Z,0.49
2018-12-15T23:28:42.498Z,0.54
2018-12-15T23:31:09.803Z,0.50
2018-12-15T23:33:36.971Z,0.59
2018-12-15T23:36:04.183Z,0.52
2018-12-15T23:38:31.292Z,0.48
2018-12-15T23:40:58.435Z,0.45
2018-12-15T23:43:25.719Z,0.48
2018-12-15T23:45:52.842Z,0.47
2018-12-15T23:48:19.983Z,0.39
2018-12-15T23:50:47.083Z,0.41
2018-12-15T23:53:14.195Z,0.44
2018-12-15T23:55:41.458Z,0.43
2018-12-15T23:58:08.575Z,0.41
